createdAt,value
2018-05-07T00:01:22.291Z,4.43
2018-05-07T00:03:50.269Z,4.00
2018-05-07T00:06:18.301Z,4.77
2018-05-07T00:08:46.280Z,4.90
2018-05-07T00:11:14.247Z,4.47
2018-05-07T00:13:42.219Z,4.40
2018-05-07T00:16:10.188Z,4.90
2018-05-07T00:18:38.187Z,4.87
2018-05-07T00:21:06.170Z,4.80
2018-05-07T00:23:34.146Z,4.73
2018-05-07T00:26:02.128Z,4.47
2018-05-07T00:28:30.128Z,4.30
2018-05-07T00:30:58.099Z,4.60
2018-05-07T00:33:26.109Z,5.33
2018-05-07T00:35:54.076Z,5.20
2018-05-07T00:38:22.051Z,4.93
2018-05-07T00:40:50.034Z,4.63
2018-05-07T00:43:18.018Z,4.33
2018-05-07T00:45:45.999Z,6.40
2018-05-07T00:48:13.992Z,5.00
2018-05-07T00:50:41.961Z,5.10
2018-05-07T00:53:09.951Z,4.60
2018-05-07T00:55:37.943Z,4.90
2018-05-07T00:58:05.911Z,4.90
2018-05-07T01:00:33.880Z,5.33
2018-05-07T01:03:01.859Z,6.50
2018-05-07T01:05:29.826Z,4.00
2018-05-07T01:07:57.805Z,4.90
2018-05-07T01:10:25.766Z,5.10
2018-05-07T01:12:53.747Z,6.47
2018-05-07T01:15:21.739Z,4.80
2018-05-07T01:17:49.719Z,5.03
2018-05-07T01:20:17.684Z,4.60
2018-05-07T01:22:45.657Z,5.47
2018-05-07T01:25:13.643Z,5.60
2018-05-07T01:27:41.614Z,5.47
2018-05-07T01:30:09.624Z,5.00
2018-05-07T01:32:37.587Z,5.50
2018-05-07T01:35:05.567Z,5.17
2018-05-07T01:37:33.540Z,5.10
2018-05-07T01:40:01.516Z,6.00
2018-05-07T01:42:29.479Z,6.07
2018-05-07T01:44:57.455Z,4.93
2018-05-07T01:47:25.420Z,5.90
2018-05-07T01:49:53.388Z,5.70
2018-05-07T01:52:21.367Z,5.67
2018-05-07T01:54:49.327Z,5.70
2018-05-07T01:57:17.331Z,4.80
2018-05-07T01:59:45.299Z,6.37
2018-05-07T02:02:13.280Z,6.23
2018-05-07T02:04:41.247Z,5.60
2018-05-07T02:07:09.241Z,5.47
2018-05-07T02:09:37.245Z,6.17
2018-05-07T02:12:05.219Z,5.80
2018-05-07T02:14:33.187Z,5.07
2018-05-07T02:17:01.148Z,6.00
2018-05-07T02:19:29.136Z,6.20
2018-05-07T02:21:57.096Z,6.30
2018-05-07T02:24:25.097Z,5.60
2018-05-07T02:26:53.110Z,5.77
2018-05-07T02:29:21.091Z,6.30
2018-05-07T02:31:49.061Z,6.40
2018-05-07T02:34:17.032Z,6.13
2018-05-07T02:36:45.017Z,6.40
2018-05-07T02:39:12.996Z,6.20
2018-05-07T02:41:40.961Z,7.10
2018-05-07T02:44:08.955Z,7.07
2018-05-07T02:46:36.937Z,6.03
2018-05-07T02:49:04.928Z,6.30
2018-05-07T02:51:32.893Z,6.70
2018-05-07T02:54:00.896Z,7.07
2018-05-07T02:56:28.882Z,6.20
2018-05-07T02:58:56.845Z,6.33
2018-05-07T03:01:24.828Z,6.17
2018-05-07T03:03:52.799Z,6.47
2018-05-07T03:06:20.788Z,7.13
2018-05-07T03:08:48.758Z,6.37
2018-05-07T03:11:16.747Z,6.70
2018-05-07T03:13:44.760Z,6.87
2018-05-07T03:16:12.740Z,6.97
2018-05-07T03:18:40.737Z,6.63
2018-05-07T03:21:08.711Z,7.50
2018-05-07T03:23:36.784Z,7.00
2018-05-07T03:26:04.771Z,6.77
2018-05-07T03:28:32.755Z,6.50
2018-05-07T03:31:00.742Z,5.90
2018-05-07T03:33:28.653Z,7.47
2018-05-07T03:35:56.618Z,7.30
2018-05-07T03:38:24.510Z,8.03
2018-05-07T03:40:52.416Z,7.03
2018-05-07T03:43:20.348Z,7.90
2018-05-07T03:45:48.272Z,6.80
2018-05-07T03:48:16.189Z,8.47
2018-05-07T03:50:44.096Z,7.10
2018-05-07T03:53:12.032Z,6.90
2018-05-07T03:55:39.959Z,7.17
2018-05-07T03:58:07.876Z,7.10
2018-05-07T04:00:35.787Z,7.20
2018-05-07T04:03:03.715Z,7.33
2018-05-07T04:05:31.627Z,7.07
2018-05-07T04:07:59.607Z,7.00
2018-05-07T04:10:27.527Z,7.30
2018-05-07T04:12:55.518Z,7.53
2018-05-07T04:15:23.437Z,7.53
2018-05-07T04:18:03.008Z,6.90
2018-05-07T04:20:42.621Z,7.70
2018-05-07T04:26:05.866Z,7.47
2018-05-07T04:28:33.873Z,7.37
2018-05-07T04:31:01.774Z,7.20
2018-05-07T04:33:29.710Z,7.57
2018-05-07T04:35:57.699Z,7.20
2018-05-07T04:38:25.520Z,7.33
2018-05-07T04:40:53.476Z,7.33
2018-05-07T04:43:21.484Z,7.10
2018-05-07T04:45:49.420Z,6.50
2018-05-07T04:48:17.431Z,6.73
2018-05-07T04:50:45.351Z,8.00
2018-05-07T04:53:13.299Z,7.73
2018-05-07T04:55:41.217Z,8.07
2018-05-07T04:58:09.127Z,7.50
2018-05-07T05:00:37.057Z,7.73
2018-05-07T05:03:05.068Z,7.20
2018-05-07T05:05:33.039Z,8.40
2018-05-07T05:08:00.985Z,8.40
2018-05-07T05:10:28.891Z,7.40
2018-05-07T05:12:56.912Z,7.50
2018-05-07T05:15:24.759Z,8.30
2018-05-07T05:17:52.674Z,8.27
2018-05-07T05:20:20.589Z,8.13
2018-05-07T05:22:48.531Z,7.30
2018-05-07T05:25:16.467Z,8.00
2018-05-07T05:27:44.363Z,7.67
2018-05-07T05:30:12.255Z,8.50
2018-05-07T05:32:40.255Z,7.90
2018-05-07T05:35:08.175Z,8.10
2018-05-07T05:37:36.077Z,6.80
2018-05-07T05:40:04.066Z,7.70
2018-05-07T05:42:31.961Z,8.90
2018-05-07T05:44:59.869Z,7.10
2018-05-07T05:47:27.782Z,8.60
2018-05-07T05:49:55.793Z,6.47
2018-05-07T05:52:23.626Z,7.40
2018-05-07T05:54:51.549Z,7.47
2018-05-07T05:57:19.436Z,7.40
2018-05-07T05:59:47.356Z,8.97
2018-05-07T06:02:15.268Z,6.77
2018-05-07T06:04:43.163Z,7.30
2018-05-07T06:07:11.088Z,7.90
2018-05-07T06:09:39.003Z,6.87
2018-05-07T06:12:06.916Z,7.17
2018-05-07T06:14:34.897Z,8.43
2018-05-07T06:17:02.752Z,8.17
2018-05-07T06:19:30.645Z,7.10
2018-05-07T06:21:58.548Z,7.43
2018-05-07T06:24:26.479Z,9.00
2018-05-07T06:26:54.383Z,7.00
2018-05-07T06:29:22.419Z,7.13
2018-05-07T06:31:50.362Z,8.77
2018-05-07T06:34:18.329Z,7.90
2018-05-07T06:36:46.143Z,7.30
2018-05-07T06:39:14.070Z,6.40
2018-05-07T06:41:42.051Z,7.30
2018-05-07T06:44:10.033Z,6.17
2018-05-07T06:46:37.983Z,6.87
2018-05-07T06:49:05.883Z,6.10
2018-05-07T06:51:33.807Z,6.10
2018-05-07T06:54:01.722Z,6.57
2018-05-07T06:56:29.654Z,5.80
2018-05-07T06:58:57.584Z,5.83
2018-05-07T07:01:25.483Z,6.47
2018-05-07T07:03:53.456Z,7.37
2018-05-07T07:06:21.367Z,5.40
2018-05-07T07:08:49.496Z,6.10
2018-05-07T07:11:17.473Z,6.60
2018-05-07T07:13:45.367Z,6.20
2018-05-07T07:16:13.283Z,7.10
2018-05-07T07:18:41.204Z,7.33
2018-05-07T07:21:09.131Z,6.23
2018-05-07T07:23:37.054Z,5.30
2018-05-07T07:26:05.227Z,6.80
2018-05-07T07:28:33.178Z,5.70
2018-05-07T07:31:01.091Z,6.80
2018-05-07T07:33:29.014Z,5.83
2018-05-07T07:35:56.911Z,4.73
2018-05-07T07:38:24.833Z,5.43
2018-05-07T07:40:52.740Z,5.50
2018-05-07T07:43:20.660Z,7.00
2018-05-07T07:45:48.664Z,5.60
2018-05-07T07:48:16.602Z,5.37
2018-05-07T07:50:44.503Z,5.40
2018-05-07T07:53:12.432Z,4.80
2018-05-07T07:55:40.347Z,5.10
2018-05-07T07:58:08.239Z,4.53
2018-05-07T08:00:36.134Z,4.87
2018-05-07T08:03:04.086Z,4.30
2018-05-07T08:05:32.013Z,6.80
2018-05-07T08:07:59.918Z,4.27
2018-05-07T08:10:27.831Z,4.73
2018-05-07T08:12:55.723Z,4.83
2018-05-07T08:15:23.671Z,4.67
2018-05-07T08:17:51.564Z,3.93
2018-05-07T08:20:19.507Z,4.33
2018-05-07T08:22:47.403Z,4.07
2018-05-07T08:25:15.377Z,4.97
2018-05-07T08:27:43.265Z,4.90
2018-05-07T08:30:11.175Z,4.50
2018-05-07T08:32:39.639Z,3.73
2018-05-07T08:35:07.705Z,4.10
2018-05-07T08:37:35.599Z,4.20
2018-05-07T08:40:03.502Z,4.20
2018-05-07T08:42:31.467Z,3.27
2018-05-07T08:44:59.362Z,4.10
2018-05-07T08:47:27.326Z,3.97
2018-05-07T08:49:55.249Z,4.00
2018-05-07T08:52:23.150Z,4.00
2018-05-07T08:54:51.070Z,3.53
2018-05-07T08:57:18.980Z,3.67
2018-05-07T08:59:46.910Z,3.57
2018-05-07T09:02:15.042Z,3.93
2018-05-07T09:04:42.945Z,3.67
2018-05-07T09:07:10.878Z,3.63
2018-05-07T09:09:38.803Z,4.20
2018-05-07T09:12:06.715Z,3.20
2018-05-07T09:14:34.619Z,3.40
2018-05-07T09:17:02.591Z,4.10
2018-05-07T09:19:30.533Z,3.00
2018-05-07T09:21:58.464Z,3.60
2018-05-07T09:24:26.382Z,3.53
2018-05-07T09:26:54.348Z,2.83
2018-05-07T09:29:22.255Z,3.30
2018-05-07T09:31:50.185Z,3.40
2018-05-07T09:34:18.091Z,3.20
2018-05-07T09:36:45.995Z,2.83
2018-05-07T09:39:13.926Z,3.20
2018-05-07T09:41:41.855Z,3.00
2018-05-07T09:44:09.767Z,3.77
2018-05-07T09:46:37.674Z,3.00
2018-05-07T09:49:05.680Z,3.27
2018-05-07T09:51:33.635Z,3.63
2018-05-07T09:54:01.527Z,2.90
2018-05-07T09:56:29.444Z,2.57
2018-05-07T09:58:57.373Z,3.23
2018-05-07T10:01:25.376Z,3.50
2018-05-07T10:03:53.354Z,2.83
2018-05-07T10:06:21.526Z,3.43
2018-05-07T10:08:49.447Z,3.00
2018-05-07T10:11:17.339Z,3.10
2018-05-07T10:13:45.278Z,3.20
2018-05-07T10:16:13.162Z,2.63
2018-05-07T10:18:41.076Z,2.60
2018-05-07T10:21:08.991Z,3.30
2018-05-07T10:23:37.033Z,2.80
2018-05-07T10:26:04.866Z,3.00
2018-05-07T10:28:32.778Z,2.90
2018-05-07T10:31:00.687Z,2.77
2018-05-07T10:33:28.646Z,2.80
2018-05-07T10:35:56.562Z,2.17
2018-05-07T10:38:24.467Z,3.10
2018-05-07T10:40:52.407Z,2.90
2018-05-07T10:43:20.375Z,2.60
2018-05-07T10:45:48.430Z,4.03
2018-05-07T10:48:16.335Z,3.33
2018-05-07T10:50:44.264Z,3.20
2018-05-07T10:53:12.180Z,2.83
2018-05-07T10:55:40.151Z,2.30
2018-05-07T10:58:08.052Z,2.97
2018-05-07T11:00:35.973Z,3.27
2018-05-07T11:03:03.877Z,2.53
2018-05-07T11:05:31.824Z,2.70
2018-05-07T11:07:59.725Z,2.83
2018-05-07T11:10:27.649Z,2.90
2018-05-07T11:12:55.550Z,2.83
2018-05-07T11:15:23.468Z,3.00
2018-05-07T11:17:51.359Z,3.03
2018-05-07T11:20:19.335Z,2.50
2018-05-07T11:22:47.231Z,2.60
2018-05-07T11:25:15.295Z,2.60
2018-05-07T11:27:43.195Z,2.93
2018-05-07T11:30:11.103Z,2.30
2018-05-07T11:32:39.104Z,3.07
2018-05-07T11:35:07.023Z,2.10
2018-05-07T11:37:34.910Z,3.17
2018-05-07T11:40:02.880Z,3.17
2018-05-07T11:42:30.807Z,2.93
2018-05-07T11:44:58.688Z,2.67
2018-05-07T11:47:26.676Z,3.20
2018-05-07T11:49:54.539Z,2.70
2018-05-07T11:52:22.466Z,2.90
2018-05-07T11:54:50.361Z,2.67
2018-05-07T11:57:18.283Z,3.60
2018-05-07T11:59:46.195Z,3.57
2018-05-07T12:02:14.125Z,2.93
2018-05-07T12:04:42.020Z,2.90
2018-05-07T12:07:09.938Z,4.17
2018-05-07T12:09:37.843Z,2.83
2018-05-07T12:12:05.749Z,3.47
2018-05-07T12:14:33.662Z,4.07
2018-05-07T12:17:01.591Z,3.97
2018-05-07T12:19:29.482Z,5.63
2018-05-07T12:21:57.451Z,6.30
2018-05-07T12:24:25.395Z,5.63
2018-05-07T12:26:53.303Z,3.50
2018-05-07T12:29:21.255Z,4.00
2018-05-07T12:31:49.247Z,3.50
2018-05-07T12:34:17.091Z,3.83
2018-05-07T12:36:45.090Z,3.50
2018-05-07T12:39:12.967Z,3.80
2018-05-07T12:41:40.870Z,4.13
2018-05-07T12:44:08.819Z,4.07
2018-05-07T12:46:36.708Z,3.90
2018-05-07T12:49:04.606Z,3.77
2018-05-07T12:51:32.537Z,3.13
2018-05-07T12:54:00.444Z,4.00
2018-05-07T12:56:28.337Z,3.73
2018-05-07T12:58:56.284Z,3.00
2018-05-07T13:01:24.172Z,3.00
2018-05-07T13:03:52.072Z,3.00
2018-05-07T13:06:19.971Z,3.93
2018-05-07T13:08:47.901Z,4.07
2018-05-07T13:11:15.791Z,2.50
2018-05-07T13:13:43.716Z,4.73
2018-05-07T13:16:11.623Z,9.57
2018-05-07T13:18:39.565Z,10.63
2018-05-07T13:21:07.507Z,14.23
2018-05-07T13:23:35.455Z,12.07
2018-05-07T13:26:03.365Z,30.70
2018-05-07T13:28:31.295Z,32.50
2018-05-07T13:30:59.220Z,54.07
2018-05-07T13:33:27.126Z,35.83
2018-05-07T13:35:55.070Z,50.17
2018-05-07T13:38:22.983Z,11.67
2018-05-07T13:40:50.912Z,23.90
2018-05-07T13:43:18.893Z,17.13
2018-05-07T13:45:46.770Z,7.53
2018-05-07T13:48:14.676Z,3.63
2018-05-07T13:50:42.585Z,9.47
2018-05-07T13:53:10.499Z,7.70
2018-05-07T13:55:38.421Z,7.83
2018-05-07T13:58:06.341Z,2.50
2018-05-07T14:00:34.261Z,4.60
2018-05-07T14:03:02.156Z,22.70
2018-05-07T14:05:30.076Z,2.93
2018-05-07T14:07:57.979Z,3.27
2018-05-07T14:10:25.915Z,2.90
2018-05-07T14:12:53.812Z,4.70
2018-05-07T14:15:21.711Z,5.90
2018-05-07T14:17:49.606Z,5.63
2018-05-07T14:20:17.519Z,2.53
2018-05-07T14:22:45.424Z,13.10
2018-05-07T14:25:13.307Z,2.93
2018-05-07T14:27:41.224Z,9.87
2018-05-07T14:30:09.133Z,3.50
2018-05-07T14:32:37.052Z,3.63
2018-05-07T14:35:04.935Z,3.60
2018-05-07T14:37:32.851Z,2.70
2018-05-07T14:40:00.762Z,2.37
2018-05-07T14:42:28.679Z,3.37
2018-05-07T14:44:56.598Z,2.93
2018-05-07T14:47:24.504Z,7.43
2018-05-07T14:49:52.417Z,5.63
2018-05-07T14:52:20.336Z,3.30
2018-05-07T14:54:48.265Z,2.40
2018-05-07T14:57:16.218Z,2.63
2018-05-07T14:59:44.119Z,2.50
2018-05-07T15:02:12.053Z,2.63
2018-05-07T15:04:39.961Z,3.30
2018-05-07T15:07:07.854Z,3.50
2018-05-07T15:09:35.782Z,3.10
2018-05-07T15:12:03.715Z,3.07
2018-05-07T15:14:31.727Z,3.10
2018-05-07T15:16:59.845Z,2.90
2018-05-07T15:19:27.767Z,2.90
2018-05-07T15:21:55.751Z,3.23
2018-05-07T15:24:23.714Z,3.30
2018-05-07T15:26:52.161Z,2.80
2018-05-07T15:29:20.147Z,3.00
2018-05-07T15:31:47.978Z,3.07
2018-05-07T15:34:16.282Z,3.33
2018-05-07T15:36:44.228Z,3.23
2018-05-07T15:39:12.172Z,2.67
2018-05-07T15:41:40.091Z,3.20
2018-05-07T15:44:08.113Z,3.00
2018-05-07T15:46:36.005Z,2.40
2018-05-07T15:49:04.380Z,2.67
2018-05-07T15:51:32.284Z,2.70
2018-05-07T15:54:00.690Z,3.10
2018-05-07T15:56:28.593Z,3.30
2018-05-07T15:59:24.550Z,3.60
2018-05-07T16:01:52.470Z,3.13
2018-05-07T16:04:20.607Z,3.90
2018-05-07T16:06:48.513Z,3.20
2018-05-07T16:09:17.039Z,3.60
2018-05-07T16:11:44.951Z,3.10
2018-05-07T16:14:12.907Z,4.00
2018-05-07T16:16:41.238Z,4.23
2018-05-07T16:19:09.327Z,4.30
2018-05-07T16:21:37.275Z,3.67
2018-05-07T16:24:05.174Z,3.33
2018-05-07T16:26:33.107Z,4.70
2018-05-07T16:29:01.147Z,5.17
2018-05-07T16:31:29.148Z,4.50
2018-05-07T16:33:57.068Z,3.50
2018-05-07T16:36:25.033Z,3.60
2018-05-07T16:38:53.180Z,3.30
2018-05-07T16:41:20.945Z,4.40
2018-05-07T16:43:48.835Z,3.07
2018-05-07T16:46:17.799Z,3.73
2018-05-07T16:48:46.584Z,3.30
2018-05-07T16:51:15.461Z,3.43
2018-05-07T16:53:43.155Z,3.60
2018-05-07T16:56:11.139Z,3.80
2018-05-07T16:58:39.003Z,4.20
2018-05-07T17:01:06.928Z,3.77
2018-05-07T17:03:34.836Z,3.63
2018-05-07T17:06:02.761Z,3.30
2018-05-07T17:08:30.671Z,4.30
2018-05-07T17:10:58.602Z,3.50
2018-05-07T17:13:26.506Z,4.07
2018-05-07T17:15:54.424Z,4.53
2018-05-07T17:18:22.361Z,4.57
2018-05-07T17:20:50.291Z,3.83
2018-05-07T17:23:18.216Z,3.10
2018-05-07T17:25:46.148Z,3.33
2018-05-07T17:28:14.044Z,3.50
2018-05-07T17:30:41.966Z,3.80
2018-05-07T17:33:09.859Z,3.50
2018-05-07T17:35:37.809Z,3.47
2018-05-07T17:38:05.727Z,2.87
2018-05-07T17:40:33.712Z,2.93
2018-05-07T17:43:01.646Z,6.90
2018-05-07T17:45:41.548Z,8.93
2018-05-07T17:48:21.303Z,12.50
2018-05-07T17:50:49.291Z,27.83
2018-05-07T17:53:17.187Z,20.20
2018-05-07T17:55:45.271Z,7.63
2018-05-07T17:58:13.371Z,12.77
2018-05-07T18:00:41.298Z,27.03
2018-05-07T18:03:09.211Z,21.33
2018-05-07T18:05:37.313Z,13.57
2018-05-07T18:08:05.861Z,14.07
2018-05-07T18:10:33.822Z,11.33
2018-05-07T18:13:01.695Z,17.50
2018-05-07T18:15:29.681Z,10.57
2018-05-07T18:17:57.548Z,6.27
2018-05-07T18:20:25.495Z,4.27
2018-05-07T18:22:53.403Z,3.07
2018-05-07T18:25:21.541Z,3.47
2018-05-07T18:27:49.828Z,3.50
2018-05-07T18:30:17.895Z,3.20
2018-05-07T18:32:45.915Z,3.00
2018-05-07T18:35:14.100Z,2.80
2018-05-07T18:37:56.399Z,2.93
2018-05-07T18:40:24.291Z,3.30
2018-05-07T18:42:52.288Z,2.90
2018-05-07T18:45:20.664Z,25.67
2018-05-07T18:47:49.107Z,9.50
2018-05-07T18:50:17.062Z,17.40
2018-05-07T18:52:45.007Z,9.37
2018-05-07T18:55:13.033Z,8.23
2018-05-07T18:57:40.912Z,8.77
2018-05-07T19:00:08.931Z,25.80
2018-05-07T19:02:36.847Z,9.43
2018-05-07T19:05:04.862Z,5.00
2018-05-07T19:07:32.828Z,2.97
2018-05-07T19:10:00.869Z,4.20
2018-05-07T19:12:29.065Z,3.70
2018-05-07T19:14:57.292Z,2.53
2018-05-07T19:17:25.388Z,2.27
2018-05-07T19:19:53.332Z,3.60
2018-05-07T19:22:21.250Z,2.20
2018-05-07T19:24:49.283Z,2.67
2018-05-07T19:27:17.188Z,2.10
2018-05-07T19:29:45.119Z,1.80
2018-05-07T19:32:13.078Z,2.00
2018-05-07T19:34:41.009Z,2.13
2018-05-07T19:37:08.972Z,2.13
2018-05-07T19:39:36.886Z,2.10
2018-05-07T19:42:04.808Z,2.70
2018-05-07T19:44:32.789Z,2.47
2018-05-07T19:47:00.721Z,3.37
2018-05-07T19:49:28.715Z,2.90
2018-05-07T19:51:56.667Z,1.90
2018-05-07T19:54:24.958Z,2.53
2018-05-07T19:56:52.858Z,2.30
2018-05-07T19:59:20.773Z,2.00
2018-05-07T20:01:48.669Z,2.10
2018-05-07T20:04:16.697Z,2.37
2018-05-07T20:06:44.718Z,1.60
2018-05-07T20:09:12.754Z,2.00
2018-05-07T20:11:40.636Z,2.00
2018-05-07T20:14:08.535Z,1.97
2018-05-07T20:16:37.072Z,1.87
2018-05-07T20:19:04.984Z,1.83
2018-05-07T20:21:32.907Z,2.20
2018-05-07T20:24:00.809Z,1.97
2018-05-07T20:26:28.740Z,2.53
2018-05-07T20:28:56.716Z,3.20
2018-05-07T20:31:24.780Z,3.13
2018-05-07T20:33:52.747Z,2.63
2018-05-07T20:36:20.662Z,3.67
2018-05-07T20:38:48.629Z,2.30
2018-05-07T20:41:16.586Z,2.03
2018-05-07T20:43:44.494Z,2.30
2018-05-07T20:46:12.410Z,2.40
2018-05-07T20:48:40.356Z,2.17
2018-05-07T20:51:08.305Z,1.90
2018-05-07T20:53:36.213Z,2.10
2018-05-07T20:56:04.189Z,2.23
2018-05-07T20:58:32.179Z,2.77
2018-05-07T21:01:00.096Z,2.20
2018-05-07T21:03:28.250Z,2.60
2018-05-07T21:05:56.164Z,1.90
2018-05-07T21:08:24.117Z,2.10
2018-05-07T21:10:52.065Z,1.80
2018-05-07T21:13:20.229Z,2.07
2018-05-07T21:15:48.147Z,1.83
2018-05-07T21:18:16.084Z,2.40
2018-05-07T21:20:43.974Z,2.87
2018-05-07T21:23:11.943Z,27.23
2018-05-07T21:25:39.874Z,6.70
2018-05-07T21:28:07.785Z,16.57
2018-05-07T21:30:36.487Z,17.90
2018-05-07T21:33:04.408Z,4.30
2018-05-07T21:35:32.321Z,2.13
2018-05-07T21:38:00.228Z,4.00
2018-05-07T21:40:28.145Z,5.53
2018-05-07T21:42:56.080Z,8.13
2018-05-07T21:45:23.976Z,2.60
2018-05-07T21:47:51.916Z,2.00
2018-05-07T21:50:19.861Z,2.43
2018-05-07T21:52:47.777Z,1.87
2018-05-07T21:55:15.707Z,2.97
2018-05-07T21:57:43.678Z,2.30
2018-05-07T22:00:11.721Z,2.20
2018-05-07T22:02:40.024Z,2.43
2018-05-07T22:05:08.012Z,2.60
2018-05-07T22:07:36.737Z,3.30
2018-05-07T22:10:04.845Z,2.70
2018-05-07T22:12:33.420Z,3.00
2018-05-07T22:15:01.336Z,6.47
2018-05-07T22:17:30.004Z,3.70
2018-05-07T22:19:58.430Z,3.27
2018-05-07T22:22:26.458Z,2.20
2018-05-07T22:24:54.374Z,2.63
2018-05-07T22:27:22.349Z,2.43
2018-05-07T22:29:50.357Z,2.57
2018-05-07T22:32:18.314Z,2.67
2018-05-07T22:34:46.450Z,2.60
2018-05-07T22:37:14.433Z,3.10
2018-05-07T22:39:42.357Z,3.33
2018-05-07T22:42:10.264Z,2.57
2018-05-07T22:44:38.199Z,3.07
2018-05-07T22:47:06.131Z,4.20
2018-05-07T22:49:34.060Z,3.40
2018-05-07T22:52:02.032Z,3.60
2018-05-07T22:54:29.913Z,3.30
2018-05-07T22:56:57.875Z,4.03
2018-05-07T22:59:25.777Z,3.63
2018-05-07T23:01:53.689Z,3.77
2018-05-07T23:04:21.602Z,4.03
2018-05-07T23:06:49.569Z,3.63
2018-05-07T23:09:17.511Z,4.43
2018-05-07T23:11:45.448Z,4.50
2018-05-07T23:14:13.386Z,3.80
2018-05-07T23:16:41.365Z,3.83
2018-05-07T23:19:09.281Z,4.43
2018-05-07T23:21:37.215Z,4.63
2018-05-07T23:24:05.128Z,4.60
2018-05-07T23:26:33.056Z,4.50
2018-05-07T23:29:01.077Z,5.10
2018-05-07T23:31:29.168Z,4.63
2018-05-07T23:33:57.272Z,5.30
2018-05-07T23:36:25.183Z,5.50
2018-05-07T23:38:53.172Z,5.10
2018-05-07T23:41:21.125Z,5.33
2018-05-07T23:43:49.121Z,4.73
2018-05-07T23:46:16.997Z,6.27
2018-05-07T23:48:45.329Z,5.50
2018-05-07T23:51:13.275Z,6.40
2018-05-07T23:53:42.497Z,5.90
2018-05-07T23:56:10.447Z,6.10
2018-05-07T23:58:38.366Z,6.60
